createdAt,value
2022-08-01T00:00:12.803Z,54.86
2022-08-01T00:02:39.444Z,54.62
2022-08-01T00:05:08.618Z,54.72
2022-08-01T00:07:34.930Z,54.90
2022-08-01T00:10:01.267Z,54.80
2022-08-01T00:12:27.559Z,55.19
2022-08-01T00:14:53.869Z,54.82
2022-08-01T00:17:20.179Z,54.64
2022-08-01T00:19:46.491Z,54.53
2022-08-01T00:22:12.812Z,54.41
2022-08-01T00:24:39.130Z,54.22
2022-08-01T00:27:05.429Z,54.65
2022-08-01T00:30:10.311Z,54.94
2022-08-01T00:32:18.012Z,54.37
2022-08-01T00:34:44.344Z,54.23
2022-08-01T00:37:10.646Z,55.16
2022-08-01T00:39:42.265Z,55.77
2022-08-01T00:42:08.678Z,55.86
2022-08-01T00:44:35.041Z,55.61
2022-08-01T00:47:01.347Z,55.97
2022-08-01T00:49:27.722Z,55.69
2022-08-01T00:51:54.055Z,55.88
2022-08-01T00:54:20.361Z,55.84
2022-08-01T00:56:46.670Z,56.22
2022-08-01T00:59:13.369Z,56.31
2022-08-01T01:01:40.428Z,56.71
2022-08-01T01:04:12.920Z,56.61
2022-08-01T01:06:39.260Z,56.57
2022-08-01T01:09:05.560Z,56.82
2022-08-01T01:11:31.885Z,58.65
2022-08-01T01:13:58.185Z,57.95
2022-08-01T01:16:24.521Z,58.93
2022-08-01T01:18:50.814Z,58.64
2022-08-01T01:21:17.409Z,59.13
2022-08-01T01:23:43.712Z,58.74
2022-08-01T01:26:10.011Z,58.94
2022-08-01T01:28:36.323Z,58.90
2022-08-01T01:31:02.622Z,58.82
2022-08-01T01:33:35.052Z,58.68
2022-08-01T01:36:11.894Z,58.46
2022-08-01T01:38:38.206Z,58.50
2022-08-01T01:41:04.552Z,58.36
2022-08-01T01:43:33.529Z,58.59
2022-08-01T01:46:00.131Z,60.49
2022-08-01T01:48:26.440Z,59.50
2022-08-01T01:50:52.741Z,59.51
2022-08-01T01:53:19.041Z,59.72
2022-08-01T01:55:49.997Z,60.57
2022-08-01T01:58:16.465Z,59.98
2022-08-01T02:00:42.746Z,59.49
2022-08-01T02:03:12.294Z,59.96
2022-08-01T02:05:38.778Z,59.99
2022-08-01T02:08:05.080Z,59.91
2022-08-01T02:10:31.388Z,60.27
2022-08-01T02:12:57.687Z,59.94
2022-08-01T02:15:23.976Z,60.37
2022-08-01T02:17:50.264Z,60.13
2022-08-01T02:20:17.145Z,59.90
2022-08-01T02:22:43.389Z,59.78
2022-08-01T02:25:09.688Z,59.63
2022-08-01T02:27:36.012Z,59.72
2022-08-01T02:30:02.325Z,59.86
2022-08-01T02:32:28.610Z,59.96
2022-08-01T02:34:54.897Z,59.97
2022-08-01T02:37:21.931Z,59.81
2022-08-01T02:39:48.236Z,60.16
2022-08-01T02:42:14.536Z,60.79
2022-08-01T02:44:40.832Z,60.64
2022-08-01T02:47:07.259Z,61.09
2022-08-01T02:49:34.053Z,60.92
2022-08-01T02:52:00.388Z,60.70
2022-08-01T02:54:26.693Z,60.98
2022-08-01T02:56:52.979Z,60.61
2022-08-01T02:59:22.247Z,60.79
2022-08-01T03:01:48.882Z,60.78
2022-08-01T03:04:15.550Z,61.67
2022-08-01T03:06:44.379Z,61.34
2022-08-01T03:09:11.606Z,61.10
2022-08-01T03:11:37.920Z,61.58
2022-08-01T03:14:04.250Z,60.53
2022-08-01T03:16:30.545Z,60.46
2022-08-01T03:18:57.033Z,60.30
2022-08-01T03:21:23.386Z,60.13
2022-08-01T03:23:54.715Z,60.23
2022-08-01T03:26:21.437Z,60.12
2022-08-01T03:28:47.788Z,60.23
2022-08-01T03:31:14.095Z,59.95
2022-08-01T03:33:40.393Z,59.61
2022-08-01T03:36:06.703Z,59.75
2022-08-01T03:38:33.007Z,60.01
2022-08-01T03:40:59.292Z,60.06
2022-08-01T03:43:25.605Z,60.18
2022-08-01T03:45:51.899Z,60.02
2022-08-01T03:48:18.210Z,59.77
2022-08-01T03:50:44.506Z,59.72
2022-08-01T03:53:10.990Z,60.40
2022-08-01T03:55:38.260Z,60.14
2022-08-01T03:58:08.294Z,60.28
2022-08-01T04:00:36.082Z,60.33
2022-08-01T04:03:02.363Z,60.94
2022-08-01T04:05:28.655Z,61.30
2022-08-01T04:07:57.810Z,60.77
2022-08-01T04:10:24.123Z,61.26
2022-08-01T04:12:50.416Z,60.87
2022-08-01T04:15:16.747Z,61.33
2022-08-01T04:17:43.032Z,61.06
2022-08-01T04:20:09.356Z,61.07
2022-08-01T04:22:37.315Z,61.39
2022-08-01T04:25:04.136Z,60.78
2022-08-01T04:27:50.712Z,60.88
2022-08-01T04:30:17.947Z,60.56
2022-08-01T04:32:46.659Z,60.71
2022-08-01T04:35:57.709Z,60.18
2022-08-01T04:37:59.373Z,60.07
2022-08-01T04:40:27.177Z,59.60
2022-08-01T04:42:53.413Z,59.51
2022-08-01T04:45:19.716Z,59.26
2022-08-01T04:47:46.110Z,60.16
2022-08-01T04:50:12.429Z,59.89
2022-08-01T04:52:38.922Z,60.49
2022-08-01T04:55:10.017Z,59.51
2022-08-01T04:57:36.320Z,59.29
2022-08-01T05:00:03.484Z,59.59
2022-08-01T05:02:30.080Z,61.08
2022-08-01T05:04:56.388Z,63.27
2022-08-01T05:07:22.678Z,63.71
2022-08-01T05:09:48.981Z,64.20
2022-08-01T05:12:15.284Z,64.30
2022-08-01T05:14:41.621Z,63.96
2022-08-01T05:17:07.902Z,64.39
2022-08-01T05:19:34.217Z,65.13
2022-08-01T05:22:01.563Z,64.75
2022-08-01T05:24:29.306Z,65.57
2022-08-01T05:26:57.193Z,66.37
2022-08-01T05:29:23.500Z,67.42
2022-08-01T05:31:50.005Z,67.19
2022-08-01T05:34:16.384Z,67.04
2022-08-01T05:36:42.680Z,67.10
2022-08-01T05:39:09.000Z,67.11
2022-08-01T05:41:35.391Z,66.64
2022-08-01T05:44:01.692Z,67.38
2022-08-01T05:46:27.993Z,66.66
2022-08-01T05:48:54.352Z,66.02
2022-08-01T05:51:20.678Z,67.20
2022-08-01T05:53:47.064Z,67.68
2022-08-01T05:56:13.364Z,67.49
2022-08-01T05:58:39.673Z,67.76
2022-08-01T06:01:06.028Z,66.79
2022-08-01T06:03:34.177Z,67.72
2022-08-01T06:06:00.462Z,67.50
2022-08-01T06:08:26.746Z,68.44
2022-08-01T06:10:53.385Z,68.46
2022-08-01T06:13:20.499Z,68.41
2022-08-01T06:15:46.808Z,68.72
2022-08-01T06:18:13.104Z,67.64
2022-08-01T06:20:39.386Z,67.67
2022-08-01T06:23:12.177Z,67.15
2022-08-01T06:25:51.957Z,66.93
2022-08-01T06:28:18.620Z,67.10
2022-08-01T06:30:44.907Z,67.49
2022-08-01T06:33:11.239Z,67.82
2022-08-01T06:35:37.531Z,67.73
2022-08-01T06:38:03.974Z,67.80
2022-08-01T06:40:30.284Z,68.25
2022-08-01T06:42:56.580Z,67.53
2022-08-01T06:45:27.823Z,68.18
2022-08-01T06:47:54.110Z,68.44
2022-08-01T06:50:20.414Z,68.13
2022-08-01T06:52:46.793Z,67.13
2022-08-01T06:55:13.091Z,68.51
2022-08-01T06:57:39.417Z,68.77
2022-08-01T07:00:07.101Z,69.51
2022-08-01T07:02:33.403Z,70.84
2022-08-01T07:05:01.313Z,73.06
2022-08-01T07:07:30.160Z,73.75
2022-08-01T07:09:56.484Z,75.82
2022-08-01T07:12:22.794Z,81.36
2022-08-01T07:14:49.120Z,83.98
2022-08-01T07:17:15.456Z,84.78
2022-08-01T07:19:41.826Z,82.95
2022-08-01T07:22:09.172Z,83.21
2022-08-01T07:24:37.342Z,82.30
2022-08-01T07:27:23.899Z,83.20
2022-08-01T07:29:49.912Z,83.65
2022-08-01T07:32:16.209Z,81.87
2022-08-01T07:34:44.613Z,82.90
2022-08-01T07:37:10.909Z,81.37
2022-08-01T07:39:37.204Z,82.34
2022-08-01T07:42:07.308Z,81.67
2022-08-01T07:44:34.237Z,81.12
2022-08-01T07:47:00.519Z,83.13
2022-08-01T07:49:26.875Z,84.21
2022-08-01T07:52:03.264Z,83.81
2022-08-01T07:54:39.618Z,80.28
2022-08-01T07:57:05.919Z,78.13
2022-08-01T07:59:32.237Z,77.34
2022-08-01T08:01:58.702Z,80.94
2022-08-01T08:04:25.391Z,79.70
2022-08-01T08:06:51.740Z,82.53
2022-08-01T08:09:18.044Z,81.74
2022-08-01T08:11:47.209Z,79.90
2022-08-01T08:14:14.265Z,81.39
2022-08-01T08:16:40.555Z,76.60
2022-08-01T08:19:06.857Z,79.68
2022-08-01T08:21:33.168Z,77.53
2022-08-01T08:24:18.392Z,76.71
2022-08-01T08:26:44.687Z,76.96
2022-08-01T08:29:11.010Z,75.57
2022-08-01T08:31:52.268Z,73.45
2022-08-01T08:34:19.104Z,74.05
2022-08-01T08:36:47.887Z,73.24
2022-08-01T08:39:14.540Z,71.57
2022-08-01T08:41:40.830Z,73.97
2022-08-01T08:44:10.375Z,74.88
2022-08-01T08:46:37.616Z,77.34
2022-08-01T08:49:04.355Z,76.08
2022-08-01T08:51:32.947Z,74.42
2022-08-01T08:53:59.254Z,73.94
2022-08-01T08:56:25.547Z,72.45
2022-08-01T08:58:54.732Z,71.76
2022-08-01T09:01:22.795Z,70.76
2022-08-01T09:03:49.412Z,69.28
2022-08-01T09:06:15.711Z,67.36
2022-08-01T09:08:42.021Z,67.02
2022-08-01T09:11:08.312Z,67.03
2022-08-01T09:13:34.617Z,66.46
2022-08-01T09:16:00.929Z,67.71
2022-08-01T09:18:28.693Z,66.28
2022-08-01T09:20:54.932Z,66.00
2022-08-01T09:23:21.228Z,65.47
2022-08-01T09:25:47.885Z,66.34
2022-08-01T09:28:14.290Z,66.19
2022-08-01T09:30:42.292Z,65.63
2022-08-01T09:33:17.830Z,64.98
2022-08-01T09:35:48.088Z,64.87
2022-08-01T09:38:15.412Z,64.38
2022-08-01T09:40:41.726Z,62.98
2022-08-01T09:43:08.061Z,63.99
2022-08-01T09:45:41.029Z,62.29
2022-08-01T09:48:10.575Z,61.40
2022-08-01T09:50:37.122Z,63.00
2022-08-01T09:53:04.362Z,62.99
2022-08-01T09:55:30.668Z,61.20
2022-08-01T09:57:57.106Z,59.35
2022-08-01T10:00:44.348Z,58.34
2022-08-01T10:03:10.388Z,58.92
2022-08-01T10:05:37.458Z,58.21
2022-08-01T10:08:07.973Z,58.70
2022-08-01T10:10:34.590Z,58.19
2022-08-01T10:13:03.880Z,57.26
2022-08-01T10:15:36.703Z,56.66
2022-08-01T10:18:03.942Z,56.16
2022-08-01T10:20:32.425Z,56.93
2022-08-01T10:22:58.854Z,57.42
2022-08-01T10:25:42.097Z,56.79
2022-08-01T10:28:10.258Z,55.84
2022-08-01T10:30:36.716Z,56.01
2022-08-01T10:33:03.019Z,56.69
2022-08-01T10:35:46.841Z,56.47
2022-08-01T10:38:14.174Z,56.16
2022-08-01T10:40:40.559Z,55.92
2022-08-01T10:43:06.940Z,55.67
2022-08-01T10:45:34.256Z,56.64
2022-08-01T10:48:00.600Z,57.05
2022-08-01T10:50:28.338Z,57.32
2022-08-01T10:52:54.640Z,57.29
2022-08-01T10:55:20.954Z,56.69
2022-08-01T10:57:52.516Z,56.29
2022-08-01T11:00:19.302Z,55.76
2022-08-01T11:02:49.405Z,56.15
2022-08-01T11:05:15.695Z,59.54
2022-08-01T11:07:45.510Z,59.08
2022-08-01T11:10:15.109Z,59.71
2022-08-01T11:12:41.502Z,58.06
2022-08-01T11:15:10.470Z,56.02
2022-08-01T11:17:37.224Z,56.16
2022-08-01T11:20:05.342Z,56.27
2022-08-01T11:22:31.649Z,54.85
2022-08-01T11:24:57.933Z,53.62
2022-08-01T11:27:24.423Z,52.30
2022-08-01T11:29:50.726Z,52.89
2022-08-01T11:32:17.014Z,54.23
2022-08-01T11:34:43.316Z,52.68
2022-08-01T11:37:10.091Z,52.19
2022-08-01T11:39:38.799Z,53.66
2022-08-01T11:42:05.378Z,53.40
2022-08-01T11:44:34.376Z,53.27
2022-08-01T11:47:00.741Z,54.12
2022-08-01T11:49:29.366Z,55.54
2022-08-01T11:51:55.901Z,55.66
2022-08-01T11:54:35.442Z,61.38
2022-08-01T11:57:02.335Z,69.38
2022-08-01T11:59:33.987Z,71.36
2022-08-01T12:02:04.844Z,73.89
2022-08-01T12:04:31.195Z,70.97
2022-08-01T12:06:57.547Z,72.51
2022-08-01T12:09:25.309Z,69.11
2022-08-01T12:11:51.544Z,69.79
2022-08-01T12:14:17.840Z,67.92
2022-08-01T12:16:44.122Z,67.28
2022-08-01T12:19:11.802Z,67.31
2022-08-01T12:21:38.198Z,68.26
2022-08-01T12:24:04.499Z,67.05
2022-08-01T12:26:32.245Z,64.72
2022-08-01T12:28:58.760Z,63.20
2022-08-01T12:31:25.045Z,61.54
2022-08-01T12:33:51.344Z,63.71
2022-08-01T12:36:17.658Z,63.06
2022-08-01T12:38:43.950Z,61.25
2022-08-01T12:41:10.230Z,61.50
2022-08-01T12:43:36.541Z,59.21
2022-08-01T12:46:02.841Z,60.21
2022-08-01T12:48:29.201Z,60.39
2022-08-01T12:50:57.633Z,57.67
2022-08-01T12:53:23.931Z,58.71
2022-08-01T12:55:58.525Z,58.45
2022-08-01T12:58:26.044Z,57.75
2022-08-01T13:00:52.378Z,59.42
2022-08-01T13:03:18.704Z,56.67
2022-08-01T13:05:45.019Z,54.69
2022-08-01T13:08:11.334Z,53.83
2022-08-01T13:10:37.681Z,55.39
2022-08-01T13:13:04.214Z,52.68
2022-08-01T13:15:32.574Z,53.42
2022-08-01T13:17:59.177Z,52.99
2022-08-01T13:20:25.498Z,53.29
2022-08-01T13:22:52.697Z,52.26
2022-08-01T13:25:22.653Z,51.36
2022-08-01T13:27:53.860Z,51.27
2022-08-01T13:30:20.432Z,50.52
2022-08-01T13:32:46.758Z,51.33
2022-08-01T13:35:16.092Z,51.65
2022-08-01T13:37:42.799Z,48.78
2022-08-01T13:40:09.054Z,49.06
2022-08-01T13:42:35.417Z,47.65
2022-08-01T13:45:02.921Z,49.11
2022-08-01T13:47:32.124Z,49.33
2022-08-01T13:50:01.603Z,49.48
2022-08-01T13:52:28.180Z,48.92
2022-08-01T13:54:54.478Z,49.26
2022-08-01T13:57:21.658Z,48.38
2022-08-01T13:59:47.982Z,48.31
2022-08-01T14:02:14.281Z,49.39
2022-08-01T14:04:40.565Z,47.68
2022-08-01T14:07:09.645Z,48.69
2022-08-01T14:09:38.178Z,48.93
2022-08-01T14:12:24.411Z,48.61
2022-08-01T14:14:50.798Z,48.94
2022-08-01T14:17:17.117Z,48.29
2022-08-01T14:19:46.213Z,48.47
2022-08-01T14:22:12.869Z,47.89
2022-08-01T14:24:39.240Z,47.77
2022-08-01T14:27:07.362Z,47.72
2022-08-01T14:30:02.209Z,48.06
2022-08-01T14:32:19.988Z,48.71
2022-08-01T14:34:50.758Z,48.82
2022-08-01T14:37:17.056Z,47.79
2022-08-01T14:39:47.028Z,48.16
2022-08-01T14:42:20.716Z,48.80
2022-08-01T14:44:49.827Z,47.43
2022-08-01T14:47:21.726Z,48.75
2022-08-01T14:49:48.582Z,48.37
2022-08-01T14:52:14.919Z,48.14
2022-08-01T14:54:41.210Z,47.86
2022-08-01T14:57:07.532Z,47.91
2022-08-01T14:59:33.820Z,47.86
2022-08-01T15:02:00.116Z,48.05
2022-08-01T15:04:26.408Z,48.22
2022-08-01T15:06:52.715Z,48.11
2022-08-01T15:09:19.021Z,47.57
2022-08-01T15:11:45.339Z,48.19
2022-08-01T15:14:30.703Z,47.23
2022-08-01T15:16:57.270Z,46.99
2022-08-01T15:19:23.579Z,48.17
2022-08-01T15:21:49.909Z,47.96
2022-08-01T15:24:16.214Z,47.52
2022-08-01T15:26:43.709Z,47.64
2022-08-01T15:29:10.018Z,47.60
2022-08-01T15:31:36.352Z,48.97
2022-08-01T15:34:05.500Z,48.40
2022-08-01T15:36:32.016Z,47.84
2022-08-01T15:38:58.419Z,47.60
2022-08-01T15:41:24.736Z,47.89
2022-08-01T15:43:55.834Z,47.70
2022-08-01T15:46:22.453Z,48.14
2022-08-01T15:48:48.836Z,48.13
2022-08-01T15:51:15.178Z,47.87
2022-08-01T15:53:41.847Z,48.54
2022-08-01T15:56:08.145Z,48.02
2022-08-01T15:58:34.650Z,47.49
2022-08-01T16:01:00.948Z,47.35
2022-08-01T16:03:27.727Z,48.24
2022-08-01T16:05:53.964Z,48.93
2022-08-01T16:08:20.277Z,49.23
2022-08-01T16:10:46.609Z,49.09
2022-08-01T16:13:12.948Z,49.29
2022-08-01T16:15:39.463Z,49.53
2022-08-01T16:18:05.852Z,49.36
2022-08-01T16:20:32.138Z,48.75
2022-08-01T16:22:58.529Z,48.43
2022-08-01T16:25:24.876Z,48.85
2022-08-01T16:27:51.236Z,48.65
2022-08-01T16:30:17.525Z,48.09
2022-08-01T16:32:47.080Z,48.26
2022-08-01T16:35:15.083Z,47.07
2022-08-01T16:37:41.382Z,48.01
2022-08-01T16:40:07.709Z,47.94
2022-08-01T16:42:34.035Z,47.84
2022-08-01T16:45:01.918Z,46.38
2022-08-01T16:47:35.255Z,46.54
2022-08-01T16:50:01.600Z,46.51
2022-08-01T16:52:28.711Z,46.92
2022-08-01T16:54:57.327Z,47.11
2022-08-01T16:57:23.640Z,47.08
2022-08-01T16:59:49.940Z,48.64
2022-08-01T17:02:16.924Z,48.32
2022-08-01T17:04:43.236Z,48.21
2022-08-01T17:07:10.045Z,48.68
2022-08-01T17:09:39.904Z,48.59
2022-08-01T17:12:10.578Z,49.12
2022-08-01T17:14:39.718Z,49.94
2022-08-01T17:17:06.636Z,49.68
2022-08-01T17:19:33.420Z,49.59
2022-08-01T17:21:59.768Z,49.80
2022-08-01T17:24:26.060Z,49.62
2022-08-01T17:26:52.383Z,49.42
2022-08-01T17:29:18.677Z,49.12
2022-08-01T17:31:45.000Z,49.19
2022-08-01T17:34:11.312Z,48.90
2022-08-01T17:36:37.619Z,48.94
2022-08-01T17:39:04.922Z,49.33
2022-08-01T17:41:31.460Z,50.16
2022-08-01T17:43:57.821Z,49.54
2022-08-01T17:46:24.156Z,49.49
2022-08-01T17:48:50.545Z,49.62
2022-08-01T17:51:22.178Z,49.36
2022-08-01T17:53:55.608Z,49.66
2022-08-01T17:56:23.886Z,49.39
2022-08-01T17:58:52.243Z,49.46
2022-08-01T18:01:18.845Z,49.97
2022-08-01T18:03:45.291Z,50.31
2022-08-01T18:06:13.459Z,50.37
2022-08-01T18:08:41.731Z,50.50
2022-08-01T18:11:08.064Z,50.69
2022-08-01T18:13:35.714Z,50.63
2022-08-01T18:16:02.533Z,50.23
2022-08-01T18:18:33.338Z,50.86
2022-08-01T18:21:00.381Z,50.94
2022-08-01T18:23:26.670Z,51.20
2022-08-01T18:25:53.711Z,51.50
2022-08-01T18:28:32.280Z,51.22
2022-08-01T18:31:01.899Z,51.56
2022-08-01T18:33:28.207Z,51.35
2022-08-01T18:35:56.055Z,51.53
2022-08-01T18:38:28.013Z,52.09
2022-08-01T18:40:54.340Z,51.54
2022-08-01T18:43:20.639Z,52.26
2022-08-01T18:45:46.919Z,52.15
2022-08-01T18:48:13.260Z,52.61
2022-08-01T18:50:39.710Z,52.44
2022-08-01T18:53:06.003Z,52.86
2022-08-01T18:55:32.321Z,53.56
2022-08-01T18:57:58.643Z,53.37
2022-08-01T19:00:24.928Z,53.01
2022-08-01T19:02:51.240Z,52.63
2022-08-01T19:05:17.536Z,52.41
2022-08-01T19:08:06.839Z,53.05
2022-08-01T19:10:30.165Z,52.84
2022-08-01T19:12:56.481Z,52.99
2022-08-01T19:15:22.758Z,52.88
2022-08-01T19:17:49.064Z,53.00
2022-08-01T19:20:15.359Z,53.26
2022-08-01T19:22:41.660Z,53.52
2022-08-01T19:25:07.961Z,53.66
2022-08-01T19:27:34.267Z,54.23
2022-08-01T19:30:00.550Z,54.84
2022-08-01T19:32:26.857Z,54.72
2022-08-01T19:34:54.566Z,54.88
2022-08-01T19:37:25.373Z,54.90
2022-08-01T19:39:53.412Z,54.37
2022-08-01T19:42:19.753Z,55.66
2022-08-01T19:44:46.069Z,55.39
2022-08-01T19:47:13.954Z,55.66
2022-08-01T19:49:40.283Z,56.21
2022-08-01T19:52:06.629Z,55.97
2022-08-01T19:54:33.562Z,56.05
2022-08-01T19:56:59.779Z,56.10
2022-08-01T19:59:26.375Z,56.18
2022-08-01T20:01:54.264Z,56.86
2022-08-01T20:04:20.560Z,56.88
2022-08-01T20:06:46.847Z,55.82
2022-08-01T20:09:13.318Z,57.63
2022-08-01T20:11:39.622Z,58.63
2022-08-01T20:14:05.921Z,58.69
2022-08-01T20:16:33.013Z,58.88
2022-08-01T20:18:59.319Z,58.92
2022-08-01T20:21:25.620Z,59.40
2022-08-01T20:23:51.947Z,62.25
2022-08-01T20:26:18.292Z,60.82
2022-08-01T20:28:44.593Z,60.64
2022-08-01T20:31:10.952Z,60.71
2022-08-01T20:33:37.344Z,61.02
2022-08-01T20:36:03.643Z,60.84
2022-08-01T20:38:32.547Z,60.28
2022-08-01T20:40:59.065Z,61.22
2022-08-01T20:43:27.359Z,61.13
2022-08-01T20:45:53.705Z,60.78
2022-08-01T20:48:20.320Z,60.42
2022-08-01T20:51:05.195Z,63.96
2022-08-01T20:53:31.551Z,62.44
2022-08-01T20:55:57.839Z,62.50
2022-08-01T20:58:24.143Z,62.25
2022-08-01T21:00:50.522Z,62.38
2022-08-01T21:03:16.886Z,62.01
2022-08-01T21:05:55.791Z,61.99
2022-08-01T21:08:25.240Z,61.72
2022-08-01T21:10:51.533Z,61.85
2022-08-01T21:13:21.154Z,61.74
2022-08-01T21:16:22.621Z,62.42
2022-08-01T21:18:35.501Z,62.47
2022-08-01T21:21:02.230Z,63.31
2022-08-01T21:23:28.529Z,62.84
2022-08-01T21:25:54.829Z,63.21
2022-08-01T21:28:21.192Z,63.28
2022-08-01T21:30:53.871Z,62.87
2022-08-01T21:33:22.126Z,63.33
2022-08-01T21:35:49.935Z,63.31
2022-08-01T21:38:16.156Z,63.61
2022-08-01T21:40:42.471Z,63.98
2022-08-01T21:43:08.788Z,63.96
2022-08-01T21:45:35.082Z,63.97
2022-08-01T21:48:01.368Z,63.96
2022-08-01T21:50:27.670Z,64.35
2022-08-01T21:52:53.982Z,64.33
2022-08-01T21:55:20.270Z,64.34
2022-08-01T21:57:47.440Z,64.59
2022-08-01T22:00:21.062Z,64.54
2022-08-01T22:02:54.015Z,64.63
2022-08-01T22:05:20.330Z,65.27
2022-08-01T22:07:48.762Z,65.07
2022-08-01T22:10:15.077Z,64.91
2022-08-01T22:12:41.378Z,64.97
2022-08-01T22:15:07.684Z,64.76
2022-08-01T22:17:33.971Z,64.58
2022-08-01T22:20:00.285Z,65.12
2022-08-01T22:22:44.286Z,65.00
2022-08-01T22:25:12.892Z,65.85
2022-08-01T22:28:06.399Z,65.81
2022-08-01T22:30:28.465Z,65.80
2022-08-01T22:33:15.166Z,65.91
2022-08-01T22:35:41.916Z,65.49
2022-08-01T22:38:09.844Z,65.99
2022-08-01T22:40:36.340Z,65.62
2022-08-01T22:43:02.656Z,65.77
2022-08-01T22:45:28.942Z,65.74
2022-08-01T22:47:55.260Z,66.37
2022-08-01T22:50:36.610Z,66.04
2022-08-01T22:53:03.177Z,66.02
2022-08-01T22:55:59.223Z,66.02
2022-08-01T22:58:18.850Z,66.76
2022-08-01T23:00:45.144Z,68.53
2022-08-01T23:03:11.468Z,68.76
2022-08-01T23:05:37.763Z,68.24
2022-08-01T23:08:04.058Z,68.13
2022-08-01T23:10:30.369Z,67.83
2022-08-01T23:12:56.698Z,67.61
2022-08-01T23:15:23.009Z,67.28
2022-08-01T23:17:49.425Z,67.61
2022-08-01T23:20:15.784Z,68.07
2022-08-01T23:22:42.077Z,67.85
2022-08-01T23:25:08.374Z,68.39
2022-08-01T23:28:03.637Z,68.38
2022-08-01T23:30:20.943Z,69.07
2022-08-01T23:32:47.299Z,69.13
2022-08-01T23:35:13.601Z,68.88
2022-08-01T23:37:39.897Z,69.01
2022-08-01T23:40:06.290Z,70.18
2022-08-01T23:42:32.595Z,70.00
2022-08-01T23:44:58.892Z,69.91
2022-08-01T23:47:25.218Z,69.89
2022-08-01T23:49:53.705Z,69.83
2022-08-01T23:52:20.573Z,70.17
2022-08-01T23:54:47.861Z,70.08
2022-08-01T23:57:16.164Z,70.09
2022-08-01T23:59:53.000Z,70.28
